Terminal Aerodrome Forecast
Issued by NWS Charleston, WV

Current Version | Previous Version | Graphics & Text | Print | Product List | Glossary On
Versions: 1 2 3 4 5 6 7 8 9 10 11 12 13 14 15 16 17 18 19 20 21 22 23
179
FTUS41 KRLX 251518 AAA
TAFCRW
TAF AMD
KCRW 251518Z 2515/2612 21011KT P6SM OVC029
     FM252100 22007KT 4SM SHRA OVC015
     FM260400 27011G17KT P6SM SHRA SCT005 OVC015
     FM260500 27012G18KT P6SM OVC015
     FM261100 25008KT P6SM BKN040=

USA.gov is the U.S. government's official web portal to all federal, state and local government web resources and services.